Time;durP1;ratioP1;P1;durP2;ratioP2;P2;SDS_P1;SDS_P2;PMS_P1;PMS_P2;Temp;Humidity;BMP_temperature;BMP_pressure;BME280_temperature;BME280_humidity;BME280_pressure;Samples;Min_cycle;Max_cycle;Signal;HPM_P1;HPM_P2
2022/09/30 00:04:35;;;;;;;1.88;0.70;;;21.40;44.30;;;;;;20636281;28;20170;-74
2022/09/30 00:14:36;;;;;;;3.28;0.55;;;21.40;44.40;;;;;;20621061;28;20456;-73
2022/09/30 00:24:36;;;;;;;1.33;0.60;;;21.30;44.40;;;;;;20721928;28;20559;-74
2022/09/30 00:34:37;;;;;;;1.17;0.80;;;21.30;44.50;;;;;;20722469;28;20148;-74
2022/09/30 00:44:50;;;;;;;1.75;1.10;;;21.20;44.50;;;;;;20686941;28;20093;-73
2022/09/30 00:54:50;;;;;;;1.30;0.88;;;21.20;44.50;;;;;;20663999;28;20073;-73
2022/09/30 01:04:53;;;;;;;1.05;0.75;;;21.10;44.60;;;;;;20704606;28;20038;-73
2022/09/30 01:14:54;;;;;;;0.68;0.68;;;21.10;44.70;;;;;;20670278;28;20038;-77
2022/09/30 01:25:25;;;;;;;1.47;0.70;;;21.10;44.80;;;;;;20669357;28;20033;-74
2022/09/30 01:35:37;;;;;;;2.35;0.73;;;21.00;44.80;;;;;;20600215;28;20368;-73
2022/09/30 01:45:38;;;;;;;1.70;0.93;;;21.00;44.80;;;;;;20936683;23;20050;-73
2022/09/30 01:55:44;;;;;;;2.38;1.10;;;20.90;44.90;;;;;;20638704;28;20038;-73
2022/09/30 02:05:54;;;;;;;0.90;0.60;;;20.90;44.90;;;;;;20551012;28;20038;-73
2022/09/30 02:15:58;;;;;;;1.67;0.88;;;20.90;45.00;;;;;;20585624;28;20125;-73
2022/09/30 02:26:05;;;;;;;1.75;0.75;;;20.90;45.00;;;;;;20616166;28;20034;-74
2022/09/30 02:36:14;;;;;;;0.70;0.60;;;20.80;45.00;;;;;;20583750;28;20075;-74
2022/09/30 02:46:39;;;;;;;0.77;0.52;;;20.70;45.00;;;;;;20550223;28;20457;-74
2022/09/30 02:56:55;;;;;;;2.13;1.10;;;20.70;45.10;;;;;;20571845;28;20067;-73
2022/09/30 03:06:56;;;;;;;0.90;0.60;;;20.70;45.10;;;;;;20518346;28;20047;-73
2022/09/30 03:16:56;;;;;;;1.65;1.05;;;20.60;45.10;;;;;;20501272;29;20043;-74
2022/09/30 03:27:22;;;;;;;0.73;0.70;;;20.60;45.20;;;;;;20528188;28;20047;-73
2022/09/30 03:37:29;;;;;;;0.87;0.73;;;20.60;45.20;;;;;;20585970;28;20077;-73
2022/09/30 03:47:31;;;;;;;0.50;0.50;;;20.50;45.30;;;;;;20655607;28;20042;-72
2022/09/30 03:57:32;;;;;;;3.88;1.05;;;20.50;45.20;;;;;;20597469;28;20085;-73
2022/09/30 04:07:32;;;;;;;1.65;0.90;;;20.40;45.10;;;;;;20553062;28;20043;-73
2022/09/30 04:17:33;;;;;;;1.05;0.60;;;20.40;45.20;;;;;;20556558;28;20066;-74
2022/09/30 04:27:35;;;;;;;0.90;0.70;;;20.30;45.20;;;;;;20603533;28;20037;-78
2022/09/30 04:37:35;;;;;;;0.88;0.60;;;20.30;45.20;;;;;;20587998;28;20499;-73
2022/09/30 04:47:36;;;;;;;2.20;0.73;;;20.20;45.30;;;;;;20575722;28;20134;-70
2022/09/30 04:57:37;;;;;;;1.15;0.82;;;20.20;45.20;;;;;;20568541;28;20037;-74
2022/09/30 05:07:37;;;;;;;1.15;0.70;;;20.20;45.20;;;;;;20538974;28;20031;-73
2022/09/30 05:17:38;;;;;;;1.80;1.10;;;20.10;45.20;;;;;;20547335;28;20050;-75
2022/09/30 05:27:39;;;;;;;1.30;0.90;;;20.10;45.20;;;;;;20574194;28;20026;-71
2022/09/30 05:37:39;;;;;;;0.47;0.40;;;20.10;45.30;;;;;;20604762;28;20031;-75
2022/09/30 05:47:41;;;;;;;0.80;0.80;;;20.00;45.30;;;;;;20534506;28;20042;-74
2022/09/30 05:57:42;;;;;;;0.50;0.50;;;20.00;45.30;;;;;;20529789;28;20564;-74
2022/09/30 06:07:42;;;;;;;0.77;0.60;;;19.90;45.30;;;;;;20565776;28;20046;-74
2022/09/30 06:17:43;;;;;;;1.63;0.55;;;19.90;45.30;;;;;;20557185;28;20108;-72
2022/09/30 06:27:45;;;;;;;1.52;0.70;;;19.80;45.40;;;;;;20564383;28;20057;-72
2022/09/30 06:37:48;;;;;;;1.40;0.77;;;19.80;45.50;;;;;;20564222;28;20110;-72
2022/09/30 06:47:50;;;;;;;2.28;1.45;;;19.80;45.50;;;;;;20546273;28;20093;-71
2022/09/30 06:57:51;;;;;;;1.08;0.85;;;19.80;45.70;;;;;;20520398;28;20031;-72
2022/09/30 07:07:52;;;;;;;1.03;0.93;;;19.80;45.90;;;;;;20506709;28;20202;-73
2022/09/30 07:17:53;;;;;;;0.88;0.60;;;19.70;46.00;;;;;;20534742;28;20326;-72
2022/09/30 07:27:55;;;;;;;0.93;0.80;;;19.40;46.60;;;;;;20544538;28;20090;-72
2022/09/30 07:37:55;;;;;;;1.45;0.90;;;19.00;47.50;;;;;;20584300;28;20039;-72
2022/09/30 07:47:57;;;;;;;0.93;0.50;;;18.60;48.40;;;;;;20560289;28;20047;-73
2022/09/30 07:57:58;;;;;;;0.90;0.73;;;18.40;49.20;;;;;;20560788;28;20041;-72
2022/09/30 08:07:59;;;;;;;0.82;0.68;;;18.10;49.80;;;;;;20559873;28;20031;-68
2022/09/30 08:17:59;;;;;;;0.73;0.70;;;18.00;50.30;;;;;;20603552;28;20038;-69
2022/09/30 08:28:00;;;;;;;1.17;0.80;;;18.00;50.60;;;;;;20638402;28;20038;-69
2022/09/30 08:38:01;;;;;;;2.33;1.10;;;18.00;50.70;;;;;;20520145;28;20042;-68
2022/09/30 08:48:28;;;;;;;1.55;0.68;;;18.10;50.50;;;;;;20510358;28;20031;-69
2022/09/30 08:58:32;;;;;;;0.77;0.57;;;18.30;50.40;;;;;;20603086;28;20066;-68
2022/09/30 09:08:59;;;;;;;2.38;0.75;;;18.50;50.10;;;;;;20578330;28;20039;-68
2022/09/30 09:19:05;;;;;;;1.33;0.90;;;18.70;49.80;;;;;;20570140;28;20045;-70
2022/09/30 09:29:35;;;;;;;2.22;1.05;;;18.90;49.50;;;;;;20566519;28;20532;-69
2022/09/30 09:39:57;;;;;;;1.30;0.85;;;19.00;49.00;;;;;;20623543;28;20116;-68
2022/09/30 09:49:59;;;;;;;2.05;0.93;;;19.20;48.70;;;;;;20648419;28;20030;-68
2022/09/30 10:10:23;;;;;;;0.93;0.60;;;19.60;48.00;;;;;;20583396;28;20037;-70
2022/09/30 10:20:27;;;;;;;0.85;0.70;;;19.70;47.60;;;;;;20623811;28;20039;-69
2022/09/30 10:30:42;;;;;;;1.88;1.20;;;19.80;47.40;;;;;;20526366;28;20043;-70
2022/09/30 10:40:47;;;;;;;2.78;0.93;;;20.00;47.10;;;;;;20562371;28;20039;-68
2022/09/30 10:50:54;;;;;;;2.37;0.70;;;20.10;46.80;;;;;;20497594;28;20035;-70
2022/09/30 11:00:59;;;;;;;2.75;1.35;;;20.30;46.50;;;;;;20527704;28;20050;-71
2022/09/30 11:11:12;;;;;;;1.43;0.93;;;20.50;46.20;;;;;;20550942;28;20042;-73
2022/09/30 11:21:25;;;;;;;2.72;1.20;;;20.80;45.60;;;;;;20525822;28;20134;-71
2022/09/30 11:31:30;;;;;;;1.10;0.80;;;21.40;44.30;;;;;;20524953;28;20032;-70
2022/09/30 11:42:02;;;;;;;1.10;0.67;;;21.90;43.20;;;;;;20548497;28;20394;-71
2022/09/30 11:52:13;;;;;;;1.35;0.75;;;22.40;42.40;;;;;;20550948;28;20058;-71
2022/09/30 12:02:37;;;;;;;1.58;0.88;;;22.50;42.20;;;;;;20541961;28;20057;-72
2022/09/30 12:12:38;;;;;;;2.47;0.70;;;22.50;42.10;;;;;;20538909;28;20118;-70
2022/09/30 12:22:40;;;;;;;2.28;0.80;;;22.20;42.60;;;;;;20547548;28;20121;-68
2022/09/30 12:32:53;;;;;;;1.60;0.70;;;21.90;43.20;;;;;;20516598;28;20039;-69
2022/09/30 12:42:53;;;;;;;0.80;0.65;;;21.60;43.60;;;;;;20513402;28;20060;-69
2022/09/30 12:52:56;;;;;;;1.50;0.77;;;21.40;44.00;;;;;;20547697;28;20035;-69
2022/09/30 13:03:07;;;;;;;0.50;0.50;;;21.30;44.30;;;;;;20589142;28;20078;-71
2022/09/30 13:13:29;;;;;;;0.43;0.43;;;21.30;44.50;;;;;;20584274;28;20062;-69
2022/09/30 13:23:39;;;;;;;1.30;0.73;;;21.20;44.70;;;;;;20538813;28;20035;-71
2022/09/30 13:34:05;;;;;;;0.63;0.50;;;21.20;45.40;;;;;;20573689;28;20041;-69
2022/09/30 13:44:15;;;;;;;1.80;0.73;;;21.10;44.80;;;;;;20588297;28;20193;-69
2022/09/30 13:54:25;;;;;;;0.73;0.52;;;21.10;45.00;;;;;;20550548;28;20035;-70
2022/09/30 14:04:44;;;;;;;0.73;0.60;;;21.10;44.90;;;;;;20564116;28;20047;-71
2022/09/30 14:14:56;;;;;;;1.25;0.60;;;21.20;45.00;;;;;;20552406;28;20045;-70
2022/09/30 14:24:57;;;;;;;3.53;0.55;;;21.10;44.90;;;;;;20556868;28;20045;-70
2022/09/30 14:34:58;;;;;;;1.27;0.43;;;21.20;44.90;;;;;;20554836;28;20039;-70
2022/09/30 14:45:03;;;;;;;0.90;0.40;;;21.20;45.00;;;;;;20513472;28;20047;-69
2022/09/30 14:55:15;;;;;;;0.37;0.30;;;21.20;45.00;;;;;;20574776;28;20093;-71
2022/09/30 15:05:16;;;;;;;2.25;0.52;;;21.20;45.00;;;;;;20595034;28;20581;-73
2022/09/30 15:15:37;;;;;;;0.73;0.60;;;21.30;45.20;;;;;;20545328;28;20043;-74
2022/09/30 15:25:38;;;;;;;0.40;0.40;;;21.40;45.10;;;;;;20560776;28;20042;-73
2022/09/30 15:35:39;;;;;;;1.88;0.60;;;21.40;45.00;;;;;;20576708;28;20389;-71
2022/09/30 15:45:44;;;;;;;0.70;0.50;;;21.40;45.00;;;;;;20576106;28;20035;-73
2022/09/30 15:56:09;;;;;;;1.08;0.50;;;21.40;45.10;;;;;;20544336;28;20046;-74
2022/09/30 16:06:12;;;;;;;3.17;0.82;;;21.50;45.30;;;;;;20527675;28;20548;-77
2022/09/30 16:16:20;;;;;;;2.75;0.60;;;21.40;44.90;;;;;;20577028;28;20413;-75
2022/09/30 16:26:27;;;;;;;8.88;0.90;;;21.40;44.50;;;;;;20559760;28;20534;-73
2022/09/30 16:36:27;;;;;;;1.48;0.52;;;21.40;44.60;;;;;;20542050;28;20068;-76
2022/09/30 16:46:28;;;;;;;1.73;0.60;;;21.30;44.70;;;;;;20557091;28;20066;-72
2022/09/30 16:56:33;;;;;;;8.07;0.50;;;21.10;45.00;;;;;;20597107;28;20050;-76
2022/09/30 17:06:33;;;;;;;2.23;0.70;;;21.10;45.20;;;;;;20498069;28;20356;-79
2022/09/30 17:16:34;;;;;;;1.17;0.60;;;21.00;45.30;;;;;;20575051;28;20445;-78
2022/09/30 17:26:37;;;;;;;2.22;0.32;;;21.10;45.50;;;;;;20577730;28;20297;-85
2022/09/30 17:36:38;;;;;;;0.73;0.55;;;21.00;45.60;;;;;;20603142;28;20035;-84
2022/09/30 17:46:43;;;;;;;0.68;0.43;;;20.90;46.20;;;;;;20578614;28;20034;-83
2022/09/30 17:56:52;;;;;;;1.17;0.43;;;20.90;45.70;;;;;;20582355;28;20042;-74
2022/09/30 18:06:58;;;;;;;1.48;0.40;;;20.90;45.80;;;;;;20571781;28;20441;-74
2022/09/30 18:16:59;;;;;;;1.85;0.60;;;20.90;45.90;;;;;;20555317;28;20047;-73
2022/09/30 18:27:00;;;;;;;1.60;0.80;;;20.80;45.90;;;;;;20543873;28;20543;-74
2022/09/30 18:37:05;;;;;;;3.60;0.80;;;20.80;46.00;;;;;;20577520;28;20386;-74
2022/09/30 18:47:10;;;;;;;1.65;0.52;;;20.80;46.00;;;;;;20564116;28;20465;-74
2022/09/30 18:57:23;;;;;;;0.77;0.52;;;20.80;46.20;;;;;;20566163;28;20045;-74
2022/09/30 19:07:25;;;;;;;1.75;0.70;;;20.70;46.10;;;;;;20582707;28;20034;-74
2022/09/30 19:17:30;;;;;;;2.00;0.60;;;20.80;46.30;;;;;;20543384;28;20606;-73
2022/09/30 19:27:34;;;;;;;0.98;0.60;;;20.70;46.30;;;;;;20560686;28;20038;-73
2022/09/30 19:37:39;;;;;;;2.33;0.68;;;20.70;46.40;;;;;;20583647;28;20382;-74
2022/09/30 19:47:44;;;;;;;1.30;0.75;;;20.60;46.30;;;;;;20623605;28;20042;-76
2022/09/30 19:58:13;;;;;;;0.90;0.60;;;20.60;46.40;;;;;;20603342;28;20035;-75
2022/09/30 20:08:14;;;;;;;1.52;0.80;;;20.60;46.40;;;;;;20520029;28;20106;-74
2022/09/30 20:18:16;;;;;;;1.33;0.90;;;20.60;46.50;;;;;;20552692;28;20043;-76
2022/09/30 20:28:22;;;;;;;3.13;1.38;;;20.50;46.50;;;;;;20559742;28;20477;-75
2022/09/30 20:38:25;;;;;;;3.05;1.40;;;20.50;46.50;;;;;;20575687;28;20081;-75
2022/09/30 20:48:33;;;;;;;2.85;1.38;;;20.50;47.30;;;;;;20573824;28;20085;-75
2022/09/30 20:58:39;;;;;;;3.33;1.60;;;20.50;46.60;;;;;;20600950;28;20389;-75
2022/09/30 21:08:43;;;;;;;3.80;1.95;;;20.50;46.60;;;;;;20591645;28;20047;-75
2022/09/30 21:18:50;;;;;;;1.73;1.20;;;20.50;46.70;;;;;;20570387;28;20046;-75
2022/09/30 21:28:52;;;;;;;3.38;1.35;;;20.40;46.60;;;;;;20582940;28;20047;-76
2022/09/30 21:39:00;;;;;;;2.40;1.25;;;20.50;46.70;;;;;;20634096;28;20072;-76
2022/09/30 21:49:18;;;;;;;2.13;1.13;;;20.40;46.70;;;;;;20577501;28;20670;-76
2022/09/30 21:59:20;;;;;;;2.53;1.20;;;20.40;46.70;;;;;;20584156;28;20038;-74
2022/09/30 22:09:21;;;;;;;1.77;0.93;;;20.40;46.70;;;;;;20505498;28;20449;-75
2022/09/30 22:19:22;;;;;;;1.50;0.98;;;20.30;46.70;;;;;;20600290;28;20034;-74
2022/09/30 22:29:33;;;;;;;1.70;1.13;;;20.40;46.80;;;;;;20616006;28;20393;-76
2022/09/30 22:39:43;;;;;;;1.95;0.95;;;20.40;46.80;;;;;;20646132;28;20499;-75
2022/09/30 22:49:45;;;;;;;2.57;1.27;;;20.30;46.80;;;;;;20546064;28;20039;-74
2022/09/30 22:59:48;;;;;;;1.50;0.95;;;20.30;46.80;;;;;;20537755;28;20393;-74
2022/09/30 23:09:54;;;;;;;2.92;0.90;;;20.30;46.80;;;;;;20497180;28;20042;-75
2022/09/30 23:19:57;;;;;;;1.67;0.80;;;20.30;46.90;;;;;;20564888;28;20062;-75
2022/09/30 23:30:02;;;;;;;2.67;1.20;;;20.30;46.90;;;;;;20546923;28;20039;-74
2022/09/30 23:40:08;;;;;;;1.27;0.88;;;20.20;46.90;;;;;;20568506;28;20042;-75
2022/09/30 23:50:10;;;;;;;1.73;1.13;;;20.20;46.90;;;;;;20471659;28;20059;-75
